EmailTwitter


Surface observations / United Kingdom / EGTE (03839)

Regions: Quebec | Canada | USA | Europe | France | UK | Elsewhere
Station
Display
Info & Location for EGTE (03839) | Help decoding METAR

Weather Conditions observed on 2020/08/03 at 23:50 UTC at EXETER AIRPORT, UK (EGTE)

Temperature: 9.0 Celsius.

Dewpoint: 8.0 Celsius.

Relative Humidity: 93%

Winds: Variable at 2 km/h or 1 knots.

Mean Sea level Pressure: 101.90 kilopascals.

Coded METAR:

EGTE 032350Z VRB01KT CAVOK 09/08 Q1019=